RJAA/NRT METAR and TAF weather

Enter ICAO airport designator
Station Type Date Time Source
RJAA METAR 2021/04/17 02:00 UTC NOAA

RJAA 170200Z 16016KT 9999 FEW020 BKN060 18/11 Q1019 NOSIG


Station Type Date Time Source
RJAA Decoded METAR 2021/04/17 02:00 UTC NOAA

New Tokyo Inter-National Airport, Japan (RJAA) 35-46N 140-23E 44M
Apr 16, 2021 - 10:00 PM EDT / 2021.04.17 0200 UTC
Wind: from the SSE (160 degrees) at 18 MPH (16 KT):0
Visibility: greater than 7 mile(s):0
Sky conditions: mostly cloudy
Temperature: 64 F (18 C)
Dew Point: 51 F (11 C)
Relative Humidity: 63%
Pressure (altimeter): 30.09 in. Hg (1019 hPa)
ob: RJAA 170200Z 16016KT 9999 FEW020 BKN060 18/11 Q1019 NOSIG
cycle: 2

Station Type Date Time Source
RJAA TAF 2021/04/16 18:28 UTC NOAA

TAF RJAA 161706Z 1618/1800 14010KT 9999 FEW020 BKN030
BECMG 1706/1709 16016G26KT
TEMPO 1709/1712 4000 SHRA BR
TEMPO 1712/1715 16025G37KT 3000 SHRA BR FEW005 BKN008
BECMG 1715/1718 23012KT

Example: see airport list